»·PEaware :: QXE2493 KSEA-KPDX

QXE2493 :: KSEA-KPDX

FLIGHT INFORMATION

Flight Status: Arrived
Operator:
Horizon Air
More flights by this operator :: More flights under this callsign
Pilot: Dave P. (45)
Aircraft: DEHAVILLAND DASH 8 400
(DH8D)
More flights by this aircraft type
Origin: KSEA Seattle-Tacoma Intl
United States
Destination: KPDX Portland Intl
United States
More flights between these airports :: More routes between these airports
Route: +SEA7 BUWZO KRATR2
File this flight plan on PilotEdge
Remarks:
Altitude:
(Current/Filed)
17,000ft
Speed:
(Current/Filed)
317kts
Departed: 27-May-19 09:06 AM
Arrived: 27-May-19 09:35 AM
Distance/Time
Traveled:
112nm/0:29
Distance/Time
To Go:
Arrived

Flight Plot

Page will automatically refresh every two minutes.

Flight plan parsing failed; only flown route is shown


Map Options




Map Legend


Flown Route
Filed Route
Departure Airport
Arrival Airport
Navaid (VOR, NDB)
Fix

Horizontal Profiles

Position Reports

Time Latitude Longitude Heading Altitude Ground
Speed
27-May-19 08:27 47.445387 -122.304613 50 440ft 0kts
27-May-19 08:28 47.445387 -122.304613 50 440ft 0kts
27-May-19 08:29 47.445387 -122.304613 50 440ft 0kts
27-May-19 08:30 47.445387 -122.304613 50 440ft 0kts
27-May-19 08:31 47.445387 -122.304613 50 440ft 0kts
27-May-19 08:32 47.445387 -122.304613 50 440ft 0kts
27-May-19 08:33 47.445387 -122.304613 50 440ft 0kts
27-May-19 08:34 47.445387 -122.304613 50 440ft 0kts
27-May-19 08:35 47.445387 -122.304613 50 440ft 0kts
27-May-19 08:36 47.445387 -122.304613 50 440ft 0kts
27-May-19 08:37 47.445387 -122.304613 50 440ft 0kts
27-May-19 08:38 47.445387 -122.304613 50 440ft 0kts
27-May-19 08:39 47.445387 -122.304613 50 440ft 0kts
27-May-19 08:40 47.445387 -122.304613 50 440ft 0kts
27-May-19 08:41 47.445387 -122.304613 50 440ft 0kts
27-May-19 08:42 47.445387 -122.304613 50 440ft 0kts
27-May-19 08:43 47.445387 -122.304613 50 440ft 0kts
27-May-19 08:44 47.445387 -122.304613 50 440ft 0kts
27-May-19 08:45 47.445387 -122.304613 50 440ft 0kts
27-May-19 08:46 47.445387 -122.304613 50 440ft 0kts
27-May-19 08:47 47.445387 -122.304613 50 440ft 0kts
27-May-19 08:48 47.445096 -122.305148 51 440ft 3kts
27-May-19 08:49 47.445023 -122.305285 51 440ft 0kts
27-May-19 08:50 47.445023 -122.305285 51 440ft 0kts
27-May-19 08:51 47.445023 -122.305285 51 440ft 0kts
27-May-19 08:52 47.445023 -122.305285 51 440ft 0kts
27-May-19 08:53 47.445023 -122.305285 51 440ft 0kts
27-May-19 08:54 47.445023 -122.305285 51 440ft 0kts
27-May-19 08:55 47.445023 -122.305285 51 440ft 0kts
27-May-19 08:56 47.445023 -122.305285 51 440ft 0kts
27-May-19 08:57 47.445023 -122.305285 51 440ft 0kts
27-May-19 08:58 47.445022 -122.305286 51 440ft 0kts
27-May-19 08:59 47.448732 -122.306277 359 440ft 24kts
27-May-19 09:00 47.455463 -122.306216 0 440ft 29kts
27-May-19 09:01 47.462512 -122.306162 0 440ft 18kts
27-May-19 09:02 47.463447 -122.306694 270 440ft 0kts
27-May-19 09:03 47.463447 -122.306694 270 440ft 0kts
27-May-19 09:04 47.462897 -122.307737 180 440ft 0kts
27-May-19 09:05 47.441347 -122.307719 180 867ft 164kts
27-May-19 09:06 47.387366 -122.306584 180 3213ft 213kts
27-May-19 09:07 47.325468 -122.306639 180 5996ft 231kts
27-May-19 09:08 47.258841 -122.307463 180 8674ft 246kts
27-May-19 09:09 47.189283 -122.308501 180 11166ft 253kts
27-May-19 09:10 47.117299 -122.309480 178 13260ft 262kts
27-May-19 09:11 47.043465 -122.309454 178 15092ft 269kts
27-May-19 09:12 46.967667 -122.309568 178 16641ft 275kts
27-May-19 09:13 46.885852 -122.309500 179 16999ft 314kts
27-May-19 09:14 46.794999 -122.309587 179 17001ft 339kts
27-May-19 09:15 46.698895 -122.309639 179 17000ft 350kts
27-May-19 09:16 46.600916 -122.309737 179 17001ft 355kts
27-May-19 09:17 46.502157 -122.309606 179 17005ft 357kts
27-May-19 09:18 46.402698 -122.309656 179 17010ft 357kts
27-May-19 09:19 46.306167 -122.309660 179 16227ft 330kts
27-May-19 09:20 46.220284 -122.328789 201 15229ft 306kts
27-May-19 09:21 46.143676 -122.372965 200 14073ft 290kts
27-May-19 09:22 46.069761 -122.413780 200 12859ft 281kts
27-May-19 09:23 45.998304 -122.452271 200 11613ft 261kts
27-May-19 09:24 45.929319 -122.491379 211 10371ft 270kts
27-May-19 09:25 45.872730 -122.561581 223 9192ft 268kts
27-May-19 09:26 45.826410 -122.641305 254 8235ft 257kts
27-May-19 09:27 45.809127 -122.735400 255 7744ft 237kts
27-May-19 09:28 45.769508 -122.808700 227 6649ft 232kts
27-May-19 09:29 45.718817 -122.859583 171 5057ft 229kts
27-May-19 09:30 45.670615 -122.804716 126 3162ft 224kts
27-May-19 09:31 45.640580 -122.737882 120 1827ft 163kts
27-May-19 09:32 45.621349 -122.688819 119 1101ft 136kts
27-May-19 09:33 45.603951 -122.644038 119 412ft 127kts
27-May-19 09:34 45.590303 -122.608994 117 37ft 26kts
27-May-19 09:35 45.589142 -122.602803 115 37ft 12kts
27-May-19 09:36 45.587306 -122.595964 118 37ft 17kts
27-May-19 09:37 45.586224 -122.592524 81 37ft 0kts
27-May-19 09:38 45.586224 -122.592523 81 37ft 0kts
27-May-19 09:39 45.586224 -122.592523 81 37ft 0kts
27-May-19 09:40 45.586224 -122.592523 81 37ft 0kts

Navigation Log

Ident Type
Flight plan parsing failed, navigation log unavailable